createdAt,value
2018-06-03T00:00:55.701Z,20.25
2018-06-03T00:02:02.242Z,20.30
2018-06-03T00:03:06.739Z,20.24
2018-06-03T00:04:12.263Z,20.20
2018-06-03T00:05:17.773Z,20.24
2018-06-03T00:06:23.311Z,20.23
2018-06-03T00:07:28.814Z,20.30
2018-06-03T00:08:35.346Z,20.25
2018-06-03T00:09:39.942Z,20.15
2018-06-03T00:10:45.373Z,20.30
2018-06-03T00:11:50.878Z,20.12
2018-06-03T00:12:56.447Z,20.23
2018-06-03T00:14:01.924Z,20.27
2018-06-03T00:15:08.446Z,20.13
2018-06-03T00:16:12.971Z,20.27
2018-06-03T00:17:18.472Z,20.15
2018-06-03T00:18:23.988Z,20.24
2018-06-03T00:19:29.518Z,20.13
2018-06-03T00:20:35.021Z,20.16
2018-06-03T00:21:41.557Z,20.13
2018-06-03T00:22:46.050Z,20.15
2018-06-03T00:23:51.575Z,20.15
2018-06-03T00:24:57.100Z,20.25
2018-06-03T00:26:02.616Z,20.21
2018-06-03T00:27:08.131Z,20.16
2018-06-03T00:28:14.654Z,20.18
2018-06-03T00:29:19.172Z,20.12
2018-06-03T00:30:24.695Z,20.18
2018-06-03T00:31:30.200Z,20.23
2018-06-03T00:32:35.711Z,20.23
2018-06-03T00:33:41.233Z,20.21
2018-06-03T00:34:47.755Z,20.20
2018-06-03T00:35:52.275Z,20.21
2018-06-03T00:36:57.784Z,20.16
2018-06-03T00:38:03.310Z,20.13
2018-06-03T00:39:08.832Z,20.23
2018-06-03T00:40:14.343Z,20.16
2018-06-03T00:41:20.879Z,20.20
2018-06-03T00:42:25.374Z,20.12
2018-06-03T00:43:30.904Z,20.20
2018-06-03T00:44:36.518Z,20.24
2018-06-03T00:45:41.938Z,20.09
2018-06-03T00:46:47.443Z,20.20
2018-06-03T00:47:53.977Z,20.15
2018-06-03T00:48:58.495Z,20.09
2018-06-03T00:50:04.017Z,20.15
2018-06-03T00:51:09.538Z,20.20
2018-06-03T00:52:15.046Z,20.18
2018-06-03T00:53:20.552Z,20.03
2018-06-03T00:54:27.086Z,20.06
2018-06-03T00:55:31.592Z,20.16
2018-06-03T00:56:37.105Z,20.18
2018-06-03T00:57:42.619Z,20.15
2018-06-03T00:58:48.141Z,20.13
2018-06-03T00:59:53.666Z,20.05
2018-06-03T01:01:00.200Z,20.09
2018-06-03T01:02:04.692Z,20.12
2018-06-03T01:03:10.228Z,20.12
2018-06-03T01:04:15.748Z,20.05
2018-06-03T01:05:21.254Z,20.12
2018-06-03T01:06:26.761Z,20.12
2018-06-03T01:07:33.307Z,20.05
2018-06-03T01:08:37.805Z,20.09
2018-06-03T01:09:43.330Z,20.09
2018-06-03T01:10:48.843Z,20.08
2018-06-03T01:11:54.358Z,20.09
2018-06-03T01:12:59.880Z,20.06
2018-06-03T01:14:06.395Z,20.08
2018-06-03T01:15:10.906Z,20.12
2018-06-03T01:16:16.420Z,20.08
2018-06-03T01:17:22.070Z,20.05
2018-06-03T01:18:27.459Z,20.08
2018-06-03T01:19:32.974Z,20.10
2018-06-03T01:20:39.509Z,20.10
2018-06-03T01:21:44.011Z,20.08
2018-06-03T01:22:49.530Z,20.03
2018-06-03T01:23:55.040Z,20.02
2018-06-03T01:25:00.565Z,20.12
2018-06-03T01:26:06.076Z,20.05
2018-06-03T01:27:12.632Z,20.09
2018-06-03T01:28:17.116Z,20.00
2018-06-03T01:29:22.630Z,20.02
2018-06-03T01:30:28.154Z,19.95
2018-06-03T01:31:33.667Z,19.95
2018-06-03T01:32:39.182Z,20.06
2018-06-03T01:33:45.706Z,19.93
2018-06-03T01:34:50.220Z,20.02
2018-06-03T01:35:55.741Z,19.98
2018-06-03T01:37:01.254Z,19.98
2018-06-03T01:38:06.780Z,20.00
2018-06-03T01:39:12.295Z,20.02
2018-06-03T01:40:18.814Z,20.00
2018-06-03T01:41:23.322Z,20.02
2018-06-03T01:42:28.841Z,20.02
2018-06-03T01:43:34.364Z,20.03
2018-06-03T01:44:39.873Z,20.00
2018-06-03T01:45:45.394Z,19.98
2018-06-03T01:46:51.922Z,20.00
2018-06-03T01:47:56.437Z,19.98
2018-06-03T01:49:01.959Z,19.98
2018-06-03T01:50:07.475Z,19.98
2018-06-03T01:51:12.997Z,20.08
2018-06-03T01:52:18.518Z,20.03
2018-06-03T01:53:25.022Z,19.95
2018-06-03T01:54:29.535Z,19.95
2018-06-03T01:55:35.138Z,19.98
2018-06-03T01:56:40.571Z,19.97
2018-06-03T01:57:46.135Z,19.95
2018-06-03T01:58:51.639Z,19.97
2018-06-03T01:59:58.136Z,20.03
2018-06-03T02:01:02.654Z,19.98
2018-06-03T02:02:08.167Z,20.00
2018-06-03T02:03:13.677Z,19.98
2018-06-03T02:04:19.195Z,19.95
2018-06-03T02:05:24.711Z,19.98
2018-06-03T02:06:31.246Z,19.91
2018-06-03T02:07:35.754Z,19.98
2018-06-03T02:08:41.263Z,20.02
2018-06-03T02:09:46.782Z,20.02
2018-06-03T02:10:52.300Z,19.97
2018-06-03T02:11:57.810Z,19.98
2018-06-03T02:13:04.351Z,19.97
2018-06-03T02:14:08.855Z,19.95
2018-06-03T02:15:14.375Z,19.97
2018-06-03T02:16:19.897Z,19.91
2018-06-03T02:17:25.411Z,19.95
2018-06-03T02:18:30.935Z,19.95
2018-06-03T02:19:37.452Z,20.00
2018-06-03T02:20:41.955Z,19.95
2018-06-03T02:21:47.477Z,19.88
2018-06-03T02:22:52.993Z,19.95
2018-06-03T02:23:58.511Z,19.91
2018-06-03T02:25:04.036Z,19.87
2018-06-03T02:26:10.557Z,19.87
2018-06-03T02:27:15.070Z,19.97
2018-06-03T02:28:20.667Z,19.90
2018-06-03T02:29:26.105Z,19.94
2018-06-03T02:30:31.675Z,19.90
2018-06-03T02:31:37.133Z,19.88
2018-06-03T02:32:43.665Z,19.87
2018-06-03T02:33:48.195Z,19.88
2018-06-03T02:34:53.687Z,19.93
2018-06-03T02:35:59.209Z,19.88
2018-06-03T02:37:04.730Z,19.80
2018-06-03T02:38:10.248Z,19.90
2018-06-03T02:39:16.780Z,19.79
2018-06-03T02:40:21.273Z,19.80
2018-06-03T02:41:26.808Z,19.88
2018-06-03T02:42:32.323Z,19.84
2018-06-03T02:43:37.841Z,19.84
2018-06-03T02:44:43.338Z,19.80
2018-06-03T02:45:49.875Z,19.88
2018-06-03T02:46:54.376Z,19.88
2018-06-03T02:47:59.892Z,19.93
2018-06-03T02:49:05.417Z,19.83
2018-06-03T02:50:10.928Z,19.94
2018-06-03T02:51:16.450Z,19.80
2018-06-03T02:52:22.980Z,19.87
2018-06-03T02:53:27.487Z,19.84
2018-06-03T02:54:33.000Z,19.80
2018-06-03T02:55:38.509Z,19.80
2018-06-03T02:56:44.038Z,19.80
2018-06-03T02:57:49.558Z,19.83
2018-06-03T02:58:56.078Z,19.83
2018-06-03T03:00:00.577Z,19.84
2018-06-03T03:01:06.138Z,19.86
2018-06-03T03:02:11.630Z,19.83
2018-06-03T03:03:17.191Z,19.79
2018-06-03T03:04:22.656Z,19.83
2018-06-03T03:05:29.198Z,19.84
2018-06-03T03:06:33.692Z,19.90
2018-06-03T03:07:39.217Z,19.78
2018-06-03T03:08:44.765Z,19.80
2018-06-03T03:09:50.258Z,19.78
2018-06-03T03:10:55.771Z,19.83
2018-06-03T03:12:02.285Z,19.88
2018-06-03T03:13:06.792Z,19.83
2018-06-03T03:14:12.327Z,19.83
2018-06-03T03:15:17.844Z,19.90
2018-06-03T03:16:23.368Z,19.76
2018-06-03T03:17:28.882Z,19.79
2018-06-03T03:18:35.400Z,19.79
2018-06-03T03:19:39.907Z,19.86
2018-06-03T03:20:45.440Z,19.79
2018-06-03T03:21:50.932Z,19.76
2018-06-03T03:22:56.450Z,19.75
2018-06-03T03:24:01.973Z,19.80
2018-06-03T03:25:08.499Z,19.76
2018-06-03T03:26:13.010Z,19.79
2018-06-03T03:27:18.537Z,19.76
2018-06-03T03:28:24.074Z,19.78
2018-06-03T03:29:29.637Z,19.72
2018-06-03T03:30:35.071Z,19.73
2018-06-03T03:31:41.604Z,19.73
2018-06-03T03:32:46.110Z,19.78
2018-06-03T03:33:51.636Z,19.73
2018-06-03T03:34:57.139Z,19.73
2018-06-03T03:36:02.667Z,19.72
2018-06-03T03:37:08.177Z,19.76
2018-06-03T03:38:14.705Z,19.73
2018-06-03T03:39:19.214Z,19.78
2018-06-03T03:40:24.734Z,19.75
2018-06-03T03:41:30.255Z,19.72
2018-06-03T03:42:35.775Z,19.78
2018-06-03T03:43:41.285Z,19.79
2018-06-03T03:44:47.828Z,19.73
2018-06-03T03:45:52.323Z,19.75
2018-06-03T03:46:57.843Z,19.70
2018-06-03T03:48:03.349Z,19.70
2018-06-03T03:49:08.873Z,19.68
2018-06-03T03:50:14.383Z,19.69
2018-06-03T03:51:20.917Z,19.68
2018-06-03T03:52:25.433Z,19.69
2018-06-03T03:53:30.937Z,19.66
2018-06-03T03:54:36.457Z,19.66
2018-06-03T03:55:41.974Z,19.61
2018-06-03T03:56:47.489Z,19.68
2018-06-03T03:57:54.018Z,19.69
2018-06-03T03:58:58.526Z,19.69
2018-06-03T04:00:04.041Z,19.69
2018-06-03T04:01:09.566Z,19.65
2018-06-03T04:02:15.078Z,19.63
2018-06-03T04:03:20.612Z,19.63
2018-06-03T04:04:27.126Z,19.58
2018-06-03T04:05:31.636Z,19.60
2018-06-03T04:06:37.145Z,19.55
2018-06-03T04:07:42.668Z,19.60
2018-06-03T04:08:48.201Z,19.55
2018-06-03T04:09:53.711Z,19.61
2018-06-03T04:11:00.232Z,19.60
2018-06-03T04:12:04.756Z,19.47
2018-06-03T04:13:10.258Z,19.50
2018-06-03T04:14:15.866Z,19.48
2018-06-03T04:15:21.288Z,19.43
2018-06-03T04:16:26.802Z,19.43
2018-06-03T04:17:33.332Z,19.43
2018-06-03T04:18:37.850Z,19.51
2018-06-03T04:19:43.349Z,19.53
2018-06-03T04:20:48.873Z,19.48
2018-06-03T04:21:54.395Z,19.48
2018-06-03T04:22:59.902Z,19.47
2018-06-03T04:24:06.429Z,19.48
2018-06-03T04:25:10.942Z,19.48
2018-06-03T04:26:16.458Z,19.51
2018-06-03T04:27:21.984Z,19.48
2018-06-03T04:28:27.490Z,19.47
2018-06-03T04:29:33.023Z,19.51
2018-06-03T04:30:39.533Z,19.47
2018-06-03T04:31:44.045Z,19.48
2018-06-03T04:32:49.562Z,19.54
2018-06-03T04:33:55.091Z,19.54
2018-06-03T04:35:00.594Z,19.55
2018-06-03T04:36:06.120Z,19.58
2018-06-03T04:37:12.636Z,19.50
2018-06-03T04:38:17.146Z,19.51
2018-06-03T04:39:22.668Z,19.51
2018-06-03T04:40:28.184Z,19.60
2018-06-03T04:41:33.702Z,19.65
2018-06-03T04:42:39.210Z,19.60
2018-06-03T04:43:45.751Z,19.58
2018-06-03T04:44:50.246Z,19.55
2018-06-03T04:45:55.840Z,19.60
2018-06-03T04:47:01.395Z,19.61
2018-06-03T04:48:06.800Z,19.63
2018-06-03T04:49:12.327Z,19.60
2018-06-03T04:50:18.856Z,19.57
2018-06-03T04:51:23.348Z,19.55
2018-06-03T04:52:28.874Z,19.57
2018-06-03T04:53:34.384Z,19.65
2018-06-03T04:54:39.906Z,19.54
2018-06-03T04:55:45.417Z,19.58
2018-06-03T04:56:51.948Z,19.55
2018-06-03T04:57:56.461Z,19.63
2018-06-03T04:59:01.986Z,19.55
2018-06-03T05:00:07.479Z,19.61
2018-06-03T05:01:13.024Z,19.58
2018-06-03T05:02:18.529Z,19.58
2018-06-03T05:03:25.051Z,19.66
2018-06-03T05:04:29.561Z,19.63
2018-06-03T05:05:35.074Z,19.61
2018-06-03T05:06:40.626Z,19.63
2018-06-03T05:07:46.112Z,19.63
2018-06-03T05:08:51.630Z,19.70
2018-06-03T05:09:58.159Z,19.65
2018-06-03T05:11:02.664Z,19.66
2018-06-03T05:12:08.182Z,19.66
2018-06-03T05:13:13.699Z,19.70
2018-06-03T05:14:19.215Z,19.70
2018-06-03T05:15:24.734Z,19.68
2018-06-03T05:16:31.261Z,19.68
2018-06-03T05:17:35.778Z,19.68
2018-06-03T05:18:41.411Z,19.70
2018-06-03T05:19:46.813Z,19.68
2018-06-03T05:20:52.328Z,19.76
2018-06-03T05:21:57.837Z,19.73
2018-06-03T05:23:04.355Z,19.72
2018-06-03T05:24:08.877Z,19.80
2018-06-03T05:25:14.391Z,19.84
2018-06-03T05:26:19.906Z,19.76
2018-06-03T05:27:25.422Z,19.78
2018-06-03T05:28:30.943Z,19.90
2018-06-03T05:29:37.475Z,19.80
2018-06-03T05:30:41.973Z,19.91
2018-06-03T05:31:47.500Z,19.93
2018-06-03T05:32:53.008Z,19.91
2018-06-03T05:33:58.531Z,20.08
2018-06-03T05:35:04.037Z,20.05
2018-06-03T05:36:10.579Z,20.09
2018-06-03T05:37:15.082Z,20.10
2018-06-03T05:38:20.591Z,20.20
2018-06-03T05:39:26.111Z,20.21
2018-06-03T05:40:31.629Z,20.15
2018-06-03T05:41:37.141Z,20.23
2018-06-03T05:42:43.674Z,20.25
2018-06-03T05:43:48.183Z,20.27
2018-06-03T05:44:53.703Z,20.34
2018-06-03T05:45:59.225Z,20.33
2018-06-03T05:47:04.729Z,20.39
2018-06-03T05:48:10.258Z,20.41
2018-06-03T05:49:16.778Z,20.42
2018-06-03T05:50:21.295Z,20.42
2018-06-03T05:51:26.804Z,20.39
2018-06-03T05:52:32.321Z,20.47
2018-06-03T05:53:37.904Z,20.43
2018-06-03T05:54:43.353Z,20.47
2018-06-03T05:55:49.986Z,20.39
2018-06-03T05:56:54.399Z,20.51
2018-06-03T05:57:59.916Z,20.50
2018-06-03T05:59:05.451Z,20.50
2018-06-03T06:00:10.958Z,20.51
2018-06-03T06:01:16.477Z,20.51
2018-06-03T06:02:22.992Z,20.51
2018-06-03T06:03:27.491Z,20.49
2018-06-03T06:04:33.011Z,20.54
2018-06-03T06:05:38.536Z,20.58
2018-06-03T06:06:44.052Z,20.51
2018-06-03T06:07:49.579Z,20.56
2018-06-03T06:08:56.109Z,20.50
2018-06-03T06:10:00.628Z,20.51
2018-06-03T06:11:06.141Z,20.51
2018-06-03T06:12:11.631Z,20.61
2018-06-03T06:13:17.160Z,20.54
2018-06-03T06:14:22.686Z,20.53
2018-06-03T06:15:29.208Z,20.51
2018-06-03T06:16:33.744Z,20.59
2018-06-03T06:17:39.250Z,20.61
2018-06-03T06:18:44.748Z,20.62
2018-06-03T06:19:50.261Z,20.65
2018-06-03T06:20:55.778Z,20.59
2018-06-03T06:22:02.310Z,20.68
2018-06-03T06:23:06.820Z,20.61
2018-06-03T06:24:12.345Z,20.65
2018-06-03T06:25:17.867Z,20.66
2018-06-03T06:26:23.375Z,20.66
2018-06-03T06:27:28.902Z,20.65
2018-06-03T06:28:35.437Z,20.68
2018-06-03T06:29:39.934Z,20.68
2018-06-03T06:30:45.439Z,20.62
2018-06-03T06:31:50.962Z,20.65
2018-06-03T06:32:56.476Z,20.65
2018-06-03T06:34:01.998Z,20.66
2018-06-03T06:35:08.522Z,20.62
2018-06-03T06:36:13.046Z,20.74
2018-06-03T06:37:18.544Z,20.68
2018-06-03T06:38:24.081Z,20.72
2018-06-03T06:39:29.599Z,20.72
2018-06-03T06:40:35.107Z,20.77
2018-06-03T06:41:41.681Z,20.74
2018-06-03T06:42:46.169Z,20.76
2018-06-03T06:43:51.654Z,20.76
2018-06-03T06:44:57.166Z,20.74
2018-06-03T06:46:02.696Z,20.80
2018-06-03T06:47:08.204Z,20.83
2018-06-03T06:48:14.744Z,20.77
2018-06-03T06:49:19.253Z,20.86
2018-06-03T06:50:24.768Z,20.79
2018-06-03T06:51:30.292Z,20.79
2018-06-03T06:52:35.797Z,20.80
2018-06-03T06:53:41.353Z,20.89
2018-06-03T06:54:47.852Z,20.90
2018-06-03T06:55:52.391Z,20.89
2018-06-03T06:56:57.880Z,20.86
2018-06-03T06:58:03.401Z,20.84
2018-06-03T06:59:08.910Z,20.96
2018-06-03T07:00:14.465Z,21.01
2018-06-03T07:01:21.102Z,21.02
2018-06-03T07:02:25.476Z,20.99
2018-06-03T07:03:30.984Z,21.11
2018-06-03T07:04:36.504Z,21.02
2018-06-03T07:05:42.026Z,21.09
2018-06-03T07:06:47.565Z,21.04
2018-06-03T07:07:54.074Z,21.09
2018-06-03T07:08:58.588Z,21.05
2018-06-03T07:10:04.093Z,21.11
2018-06-03T07:11:09.614Z,21.11
2018-06-03T07:12:15.133Z,21.13
2018-06-03T07:13:20.646Z,21.19
2018-06-03T07:14:27.225Z,21.19
2018-06-03T07:15:31.681Z,21.21
2018-06-03T07:16:37.236Z,21.26
2018-06-03T07:17:42.739Z,21.29
2018-06-03T07:18:48.239Z,21.26
2018-06-03T07:19:53.789Z,21.27
2018-06-03T07:21:00.309Z,21.21
2018-06-03T07:22:04.803Z,21.32
2018-06-03T07:23:10.343Z,21.36
2018-06-03T07:24:15.847Z,21.34
2018-06-03T07:25:21.388Z,21.36
2018-06-03T07:26:26.912Z,21.35
2018-06-03T07:27:33.402Z,21.34
2018-06-03T07:28:37.925Z,21.35
2018-06-03T07:29:43.430Z,21.38
2018-06-03T07:30:48.975Z,21.35
2018-06-03T07:31:54.483Z,21.36
2018-06-03T07:32:59.989Z,21.38
2018-06-03T07:34:06.524Z,21.36
2018-06-03T07:35:11.009Z,21.27
2018-06-03T07:36:16.560Z,21.27
2018-06-03T07:37:22.091Z,21.26
2018-06-03T07:38:27.621Z,21.26
2018-06-03T07:39:33.104Z,21.27
2018-06-03T07:40:39.619Z,21.27
2018-06-03T07:41:44.120Z,21.32
2018-06-03T07:42:49.646Z,21.27
2018-06-03T07:43:55.163Z,21.26
2018-06-03T07:45:00.690Z,21.30
2018-06-03T07:46:06.182Z,21.26
2018-06-03T07:47:12.735Z,21.38
2018-06-03T07:48:17.273Z,21.27
2018-06-03T07:49:22.749Z,21.30
2018-06-03T07:50:28.340Z,21.34
2018-06-03T07:51:33.784Z,21.39
2018-06-03T07:52:39.311Z,21.35
2018-06-03T07:53:45.834Z,21.32
2018-06-03T07:54:50.348Z,21.30
2018-06-03T07:55:55.865Z,21.34
2018-06-03T07:57:01.398Z,21.35
2018-06-03T07:58:06.904Z,21.34
2018-06-03T07:59:12.422Z,21.36
2018-06-03T08:00:18.944Z,21.30
2018-06-03T08:01:23.474Z,21.44
2018-06-03T08:02:28.980Z,21.35
2018-06-03T08:03:34.485Z,21.32
2018-06-03T08:04:40.010Z,21.32
2018-06-03T08:05:45.519Z,21.36
2018-06-03T08:06:52.060Z,21.34
2018-06-03T08:07:56.561Z,21.34
2018-06-03T08:09:02.082Z,21.34
2018-06-03T08:10:07.684Z,21.34
2018-06-03T08:11:13.162Z,21.41
2018-06-03T08:12:18.630Z,21.34
2018-06-03T08:13:25.167Z,21.41
2018-06-03T08:14:29.664Z,21.36
2018-06-03T08:15:35.183Z,21.30
2018-06-03T08:16:40.697Z,21.45
2018-06-03T08:17:46.220Z,21.30
2018-06-03T08:18:51.746Z,21.38
2018-06-03T08:19:58.285Z,21.36
2018-06-03T08:21:02.772Z,21.41
2018-06-03T08:22:08.309Z,21.48
2018-06-03T08:23:13.813Z,21.57
2018-06-03T08:24:19.338Z,21.63
2018-06-03T08:25:24.863Z,21.64
2018-06-03T08:26:31.391Z,21.71
2018-06-03T08:27:35.896Z,21.82
2018-06-03T08:28:41.432Z,21.91
2018-06-03T08:29:46.925Z,21.98
2018-06-03T08:30:52.451Z,21.94
2018-06-03T08:31:57.989Z,22.09
2018-06-03T08:33:04.487Z,22.13
2018-06-03T08:34:08.996Z,22.13
2018-06-03T08:35:14.508Z,22.23
2018-06-03T08:36:20.033Z,22.31
2018-06-03T08:37:25.554Z,22.37
2018-06-03T08:38:31.067Z,22.44
2018-06-03T08:39:37.597Z,22.49
2018-06-03T08:40:42.101Z,22.54
2018-06-03T08:41:47.616Z,22.72
2018-06-03T08:42:53.190Z,22.75
2018-06-03T08:43:58.665Z,22.77
2018-06-03T08:45:04.206Z,22.92
2018-06-03T08:46:10.729Z,22.84
2018-06-03T08:47:15.247Z,22.92
2018-06-03T08:48:20.749Z,22.96
2018-06-03T08:49:26.248Z,23.01
2018-06-03T08:50:31.779Z,23.08
2018-06-03T08:51:37.312Z,23.11
2018-06-03T08:52:43.824Z,23.08
2018-06-03T08:53:48.347Z,23.07
2018-06-03T08:54:53.859Z,23.09
2018-06-03T08:55:59.391Z,23.09
2018-06-03T08:57:04.926Z,23.09
2018-06-03T08:58:10.405Z,22.99
2018-06-03T08:59:16.949Z,22.94
2018-06-03T09:00:21.468Z,23.02
2018-06-03T09:01:26.982Z,23.08
2018-06-03T09:02:32.486Z,22.99
2018-06-03T09:03:38.015Z,23.02
2018-06-03T09:04:43.578Z,23.01
2018-06-03T09:05:50.061Z,23.05
2018-06-03T09:06:54.597Z,22.92
2018-06-03T09:08:00.091Z,22.96
2018-06-03T09:09:05.626Z,22.93
2018-06-03T09:10:11.121Z,22.92
2018-06-03T09:11:16.638Z,22.83
2018-06-03T09:12:23.187Z,22.89
2018-06-03T09:13:27.673Z,22.82
2018-06-03T09:14:33.213Z,22.77
2018-06-03T09:15:38.733Z,22.78
2018-06-03T09:16:44.257Z,22.75
2018-06-03T09:17:49.750Z,22.68
2018-06-03T09:18:56.334Z,22.74
2018-06-03T09:20:00.814Z,22.75
2018-06-03T09:21:06.339Z,22.74
2018-06-03T09:22:11.836Z,22.77
2018-06-03T09:23:17.360Z,22.68
2018-06-03T09:24:22.867Z,22.72
2018-06-03T09:25:29.405Z,22.68
2018-06-03T09:26:33.911Z,22.69
2018-06-03T09:27:39.442Z,22.68
2018-06-03T09:28:44.944Z,22.72
2018-06-03T09:29:50.458Z,22.67
2018-06-03T09:30:56.008Z,22.74
2018-06-03T09:32:02.528Z,22.72
2018-06-03T09:33:07.023Z,22.71
2018-06-03T09:34:12.530Z,22.72
2018-06-03T09:35:18.060Z,22.72
2018-06-03T09:36:23.578Z,22.74
2018-06-03T09:37:29.099Z,22.71
2018-06-03T09:38:35.626Z,22.74
2018-06-03T09:39:40.156Z,22.69
2018-06-03T09:40:45.806Z,22.68
2018-06-03T09:41:51.187Z,22.60
2018-06-03T09:42:56.721Z,22.67
2018-06-03T09:44:02.218Z,22.75
2018-06-03T09:45:08.763Z,22.68
2018-06-03T09:46:13.256Z,22.69
2018-06-03T09:47:18.909Z,22.72
2018-06-03T09:48:24.308Z,22.68
2018-06-03T09:49:29.803Z,22.68
2018-06-03T09:50:35.327Z,22.68
2018-06-03T09:51:41.864Z,22.68
2018-06-03T09:52:46.382Z,22.74
2018-06-03T09:53:51.880Z,22.78
2018-06-03T09:54:57.422Z,22.84
2018-06-03T09:56:02.915Z,22.75
2018-06-03T09:57:08.450Z,22.77
2018-06-03T09:58:14.970Z,22.82
2018-06-03T09:59:19.481Z,22.84
2018-06-03T10:00:25.933Z,22.83
2018-06-03T10:01:30.520Z,22.90
2018-06-03T10:02:36.054Z,22.87
2018-06-03T10:03:41.569Z,22.92
2018-06-03T10:04:48.090Z,22.94
2018-06-03T10:05:52.591Z,22.93
2018-06-03T10:06:58.130Z,22.93
2018-06-03T10:08:03.627Z,22.99
2018-06-03T10:09:09.175Z,23.01
2018-06-03T10:10:14.712Z,23.02
2018-06-03T10:11:21.210Z,23.09
2018-06-03T10:12:25.714Z,23.07
2018-06-03T10:13:31.220Z,23.07
2018-06-03T10:14:36.744Z,23.14
2018-06-03T10:15:42.262Z,23.15
2018-06-03T10:16:47.787Z,23.22
2018-06-03T10:17:54.317Z,23.24
2018-06-03T10:18:58.839Z,23.24
2018-06-03T10:20:04.361Z,23.31
2018-06-03T10:21:09.868Z,23.29
2018-06-03T10:22:15.381Z,23.40
2018-06-03T10:23:20.903Z,23.40
2018-06-03T10:24:27.475Z,23.43
2018-06-03T10:25:31.933Z,23.40
2018-06-03T10:26:37.462Z,23.35
2018-06-03T10:27:43.088Z,23.45
2018-06-03T10:28:48.526Z,23.35
2018-06-03T10:29:54.017Z,23.46
2018-06-03T10:31:00.564Z,23.52
2018-06-03T10:32:05.071Z,23.52
2018-06-03T10:33:10.584Z,23.52
2018-06-03T10:34:16.099Z,23.57
2018-06-03T10:35:21.619Z,23.53
2018-06-03T10:36:27.147Z,23.50
2018-06-03T10:37:33.676Z,23.62
2018-06-03T10:38:38.176Z,23.62
2018-06-03T10:39:43.701Z,23.53
2018-06-03T10:40:49.205Z,23.72
2018-06-03T10:41:54.738Z,23.60
2018-06-03T10:43:00.247Z,23.57
2018-06-03T10:44:06.806Z,23.65
2018-06-03T10:45:11.313Z,23.62
2018-06-03T10:46:16.803Z,23.60
2018-06-03T10:47:22.328Z,23.65
2018-06-03T10:48:27.852Z,23.68
2018-06-03T10:49:33.379Z,23.65
2018-06-03T10:50:39.909Z,23.67
2018-06-03T10:51:44.409Z,23.52
2018-06-03T10:52:49.920Z,23.62
2018-06-03T10:53:55.447Z,23.62
2018-06-03T10:55:00.961Z,23.58
2018-06-03T10:56:06.491Z,23.67
2018-06-03T10:57:13.031Z,23.68
2018-06-03T10:58:17.533Z,23.72
2018-06-03T10:59:23.071Z,23.71
2018-06-03T11:00:28.568Z,23.71
2018-06-03T11:01:34.096Z,23.80
2018-06-03T11:02:39.627Z,23.72
2018-06-03T11:03:46.151Z,23.76
2018-06-03T11:04:50.655Z,23.79
2018-06-03T11:05:56.208Z,23.89
2018-06-03T11:07:01.672Z,23.85
2018-06-03T11:08:07.205Z,23.90
2018-06-03T11:09:12.734Z,23.85
2018-06-03T11:10:19.248Z,23.98
2018-06-03T11:11:23.754Z,23.97
2018-06-03T11:12:29.272Z,24.02
2018-06-03T11:13:34.802Z,24.01
2018-06-03T11:14:40.328Z,24.10
2018-06-03T11:15:45.847Z,24.12
2018-06-03T11:16:52.386Z,24.16
2018-06-03T11:17:56.886Z,24.19
2018-06-03T11:19:02.429Z,24.19
2018-06-03T11:20:07.936Z,24.16
2018-06-03T11:21:13.445Z,24.22
2018-06-03T11:22:18.961Z,24.29
2018-06-03T11:23:25.513Z,24.26
2018-06-03T11:24:30.021Z,24.37
2018-06-03T11:25:35.517Z,24.34
2018-06-03T11:26:41.041Z,24.50
2018-06-03T11:27:46.562Z,24.49
2018-06-03T11:28:52.091Z,24.49
2018-06-03T11:29:58.607Z,24.56
2018-06-03T11:31:03.116Z,24.57
2018-06-03T11:32:08.653Z,24.59
2018-06-03T11:33:14.159Z,24.53
2018-06-03T11:34:19.682Z,24.63
2018-06-03T11:35:25.185Z,24.60
2018-06-03T11:36:31.736Z,24.61
2018-06-03T11:37:36.240Z,24.69
2018-06-03T11:38:41.778Z,24.76
2018-06-03T11:39:47.269Z,24.83
2018-06-03T11:40:52.802Z,25.00
2018-06-03T11:41:58.382Z,25.13
2018-06-03T11:43:04.858Z,25.13
2018-06-03T11:44:09.356Z,25.17
2018-06-03T11:45:14.885Z,25.16
2018-06-03T11:46:20.403Z,25.19
2018-06-03T11:47:25.948Z,25.17
2018-06-03T11:48:31.461Z,25.25
2018-06-03T11:49:37.980Z,25.31
2018-06-03T11:50:42.489Z,25.27
2018-06-03T11:51:47.998Z,25.35
2018-06-03T11:52:53.558Z,25.34
2018-06-03T11:53:59.055Z,25.37
2018-06-03T11:55:04.562Z,25.37
2018-06-03T11:56:11.095Z,25.37
2018-06-03T11:57:15.620Z,25.27
2018-06-03T11:58:21.180Z,25.34
2018-06-03T11:59:26.658Z,25.32
2018-06-03T12:00:32.160Z,25.47
2018-06-03T12:01:37.699Z,25.44
2018-06-03T12:02:44.238Z,25.43
2018-06-03T12:03:48.725Z,25.34
2018-06-03T12:04:54.269Z,25.32
2018-06-03T12:05:59.778Z,25.30
2018-06-03T12:07:05.287Z,25.16
2018-06-03T12:08:10.871Z,25.10
2018-06-03T12:09:17.386Z,25.13
2018-06-03T12:10:21.934Z,25.13
2018-06-03T12:11:27.374Z,25.09
2018-06-03T12:12:32.888Z,25.06
2018-06-03T12:13:38.424Z,25.09
2018-06-03T12:14:43.966Z,25.09
2018-06-03T12:15:50.469Z,25.16
2018-06-03T12:16:55.000Z,25.06
2018-06-03T12:18:00.505Z,25.09
2018-06-03T12:19:06.013Z,25.06
2018-06-03T12:20:11.524Z,25.06
2018-06-03T12:21:17.062Z,25.01
2018-06-03T12:22:23.601Z,24.98
2018-06-03T12:23:28.099Z,24.88
2018-06-03T12:24:33.620Z,24.88
2018-06-03T12:25:39.154Z,24.80
2018-06-03T12:26:44.660Z,24.82
2018-06-03T12:27:50.173Z,24.80
2018-06-03T12:28:56.710Z,24.85
2018-06-03T12:30:01.230Z,24.75
2018-06-03T12:31:06.752Z,24.80
2018-06-03T12:32:12.253Z,24.87
2018-06-03T12:33:17.785Z,24.87
2018-06-03T12:34:23.301Z,24.87
2018-06-03T12:35:29.829Z,24.87
2018-06-03T12:36:34.339Z,24.91
2018-06-03T12:37:39.876Z,24.87
2018-06-03T12:38:45.381Z,24.88
2018-06-03T12:39:50.901Z,24.85
2018-06-03T12:40:56.429Z,24.88
2018-06-03T12:42:02.947Z,24.94
2018-06-03T12:43:07.462Z,24.95
2018-06-03T12:44:12.984Z,25.02
2018-06-03T12:45:18.496Z,25.02
2018-06-03T12:46:24.026Z,25.02
2018-06-03T12:47:29.560Z,25.00
2018-06-03T12:48:36.097Z,25.00
2018-06-03T12:49:40.581Z,25.01
2018-06-03T12:50:46.146Z,25.02
2018-06-03T12:51:51.631Z,25.06
2018-06-03T12:52:57.168Z,25.00
2018-06-03T12:54:02.685Z,25.17
2018-06-03T12:55:09.195Z,25.10
2018-06-03T12:56:13.705Z,25.19
2018-06-03T12:57:19.245Z,25.15
2018-06-03T12:58:24.762Z,25.13
2018-06-03T12:59:30.266Z,25.19
2018-06-03T13:00:35.786Z,25.17
2018-06-03T13:01:42.319Z,25.20
2018-06-03T13:02:46.830Z,25.25
2018-06-03T13:03:52.347Z,25.28
2018-06-03T13:04:57.885Z,25.31
2018-06-03T13:06:03.414Z,25.27
2018-06-03T13:07:08.911Z,25.27
2018-06-03T13:08:15.456Z,25.27
2018-06-03T13:09:19.960Z,25.31
2018-06-03T13:10:25.484Z,25.28
2018-06-03T13:11:31.010Z,25.35
2018-06-03T13:12:36.524Z,25.37
2018-06-03T13:13:42.034Z,25.32
2018-06-03T13:14:48.572Z,25.49
2018-06-03T13:15:53.129Z,25.47
2018-06-03T13:16:58.594Z,25.47
2018-06-03T13:18:04.109Z,25.68
2018-06-03T13:19:09.676Z,25.57
2018-06-03T13:20:15.162Z,25.75
2018-06-03T13:21:21.689Z,25.77
2018-06-03T13:22:26.190Z,25.90
2018-06-03T13:23:31.722Z,25.94
2018-06-03T13:24:37.238Z,26.01
2018-06-03T13:25:42.769Z,26.09
2018-06-03T13:26:48.295Z,26.17
2018-06-03T13:27:54.820Z,26.15
2018-06-03T13:28:59.320Z,26.12
2018-06-03T13:30:04.838Z,26.17
2018-06-03T13:31:10.373Z,26.24
2018-06-03T13:32:15.885Z,26.09
2018-06-03T13:33:21.403Z,26.29
2018-06-03T13:34:27.949Z,26.36
2018-06-03T13:35:32.457Z,26.39
2018-06-03T13:36:37.976Z,26.37
2018-06-03T13:37:43.499Z,26.37
2018-06-03T13:38:49.026Z,26.40
2018-06-03T13:39:54.527Z,26.40
2018-06-03T13:41:01.069Z,26.49
2018-06-03T13:42:05.586Z,26.50
2018-06-03T13:43:11.113Z,26.52
2018-06-03T13:44:16.636Z,26.55
2018-06-03T13:45:22.138Z,26.49
2018-06-03T13:46:27.667Z,26.52
2018-06-03T13:47:34.196Z,26.54
2018-06-03T13:48:38.770Z,26.49
2018-06-03T13:49:44.221Z,26.59
2018-06-03T13:50:49.748Z,26.58
2018-06-03T13:51:55.270Z,26.52
2018-06-03T13:53:00.799Z,26.49
2018-06-03T13:54:07.313Z,26.54
2018-06-03T13:55:11.848Z,26.37
2018-06-03T13:56:17.389Z,26.37
2018-06-03T13:57:22.870Z,26.36
2018-06-03T13:58:28.399Z,26.40
2018-06-03T13:59:33.918Z,26.42
2018-06-03T14:00:40.444Z,26.42
2018-06-03T14:01:45.038Z,26.43
2018-06-03T14:02:50.480Z,26.46
2018-06-03T14:03:56.055Z,26.31